Time;durP1;ratioP1;P1;durP2;ratioP2;P2;SDS_P1;SDS_P2;PMS_P1;PMS_P2;Temp;Humidity;BMP_temperature;BMP_pressure;BME280_temperature;BME280_humidity;BME280_pressure;Samples;Min_cycle;Max_cycle;Signal;HPM_P1;HPM_P2
2022/12/21 00:00:49;;;;;;;;;;;;;;;8.24;100.00;101025.84;5081005;28;22302;-60
2022/12/21 00:03:14;;;;;;;;;;;;;;;8.27;100.00;101017.59;5086625;28;19916;-59
2022/12/21 00:05:39;;;;;;;;;;;;;;;8.30;100.00;101014.66;5086375;28;19968;-59
2022/12/21 00:08:04;;;;;;;;;;;;;;;8.32;100.00;101011.84;5085244;28;20004;-60
2022/12/21 00:10:29;;;;;;;;;;;;;;;8.34;100.00;101026.63;5086618;28;19970;-60
2022/12/21 00:12:54;;;;;;;;;;;;;;;8.35;100.00;101017.69;5078691;28;20384;-59
2022/12/21 00:15:20;;;;;;;;;;;;;;;8.33;100.00;101016.16;5083689;28;19916;-60
2022/12/21 00:17:45;;;;;;;;;;;;;;;8.31;100.00;101013.66;5080204;28;19916;-61
2022/12/21 00:20:10;;;;;;;;;;;;;;;8.27;100.00;101016.78;5084410;28;19927;-60
2022/12/21 00:22:36;;;;;;;;;;;;;;;8.23;100.00;101008.31;5085057;28;20269;-60
2022/12/21 00:25:01;;;;;;;;;;;;;;;8.23;100.00;101016.25;5081849;28;19963;-62
2022/12/21 00:27:26;;;;;;;;;;;;;;;8.22;100.00;101011.13;5085481;28;20044;-60
2022/12/21 00:29:51;;;;;;;;;;;;;;;8.21;100.00;101007.63;5087641;28;19947;-60
2022/12/21 00:32:16;;;;;;;;;;;;;;;8.22;100.00;101009.28;5081699;28;19974;-60
2022/12/21 00:34:41;;;;;;;;;;;;;;;8.23;100.00;101003.03;5076501;28;19951;-59
2022/12/21 00:37:07;;;;;;;;;;;;;;;8.23;100.00;101012.78;5086553;28;19924;-63
2022/12/21 00:39:32;;;;;;;;;;;;;;;8.25;100.00;101026.69;5081725;28;19936;-60
2022/12/21 00:41:57;;;;;;;;;;;;;;;8.27;100.00;101016.78;5084310;28;19952;-60
2022/12/21 00:44:22;;;;;;;;;;;;;;;8.26;100.00;101021.22;5081654;28;19978;-60
2022/12/21 00:46:48;;;;;;;;;;;;;;;8.27;100.00;101014.97;5081844;28;19920;-58
2022/12/21 00:49:13;;;;;;;;;;;;;;;8.29;100.00;101022.75;5081469;28;19924;-60
2022/12/21 00:51:38;;;;;;;;;;;;;;;8.28;100.00;101013.97;5087944;28;19916;-60
2022/12/21 00:54:04;;;;;;;;;;;;;;;8.30;100.00;101021.75;5089906;28;19920;-61
2022/12/21 00:56:29;;;;;;;;;;;;;;;8.31;100.00;101021.59;5085447;28;19920;-60
2022/12/21 00:58:54;;;;;;;;;;;;;;;8.34;100.00;101031.91;5087667;28;19916;-60
2022/12/21 01:01:21;;;;;;;;;;;;;;;8.35;100.00;101035.41;5088586;28;19979;-58
2022/12/21 01:03:46;;;;;;;;;;;;;;;8.34;100.00;101026.63;5081909;28;19915;-61
2022/12/21 01:06:13;;;;;;;;;;;;;;;8.32;100.00;101023.28;5085668;28;19969;-60
2022/12/21 01:08:38;;;;;;;;;;;;;;;8.30;100.00;101035.00;5087442;28;20012;-58
2022/12/21 01:11:03;;;;;;;;;;;;;;;8.29;100.00;101039.44;5085828;28;19959;-60
2022/12/21 01:13:30;;;;;;;;;;;;;;;8.27;100.00;101041.41;5090152;28;19920;-59
2022/12/21 01:15:55;;;;;;;;;;;;;;;8.27;100.00;101040.59;5086484;28;19923;-60
2022/12/21 01:18:21;;;;;;;;;;;;;;;8.24;100.00;101036.44;5088566;28;19916;-60
2022/12/21 01:20:50;;;;;;;;;;;;;;;8.24;100.00;101040.88;5082087;28;19943;-60
2022/12/21 01:23:16;;;;;;;;;;;;;;;8.23;100.00;101032.13;5091508;28;19912;-60
2022/12/21 01:25:44;;;;;;;;;;;;;;;8.24;100.00;101035.59;5088553;28;19923;-59
2022/12/21 01:28:10;;;;;;;;;;;;;;;8.24;100.00;101041.72;5081269;28;19923;-59
2022/12/21 01:30:35;;;;;;;;;;;;;;;8.24;100.00;101044.38;5084864;28;19916;-60
2022/12/21 01:33:01;;;;;;;;;;;;;;;8.25;100.00;101043.38;5086836;28;19916;-60
2022/12/21 01:35:26;;;;;;;;;;;;;;;8.30;100.00;101048.22;5083951;28;19956;-60
2022/12/21 01:37:51;;;;;;;;;;;;;;;8.31;100.00;101042.78;5090081;28;20414;-60
2022/12/21 01:40:16;;;;;;;;;;;;;;;8.32;100.00;101044.44;5101236;28;19915;-60
2022/12/21 01:42:41;;;;;;;;;;;;;;;8.33;100.00;101053.22;5080725;28;21926;-59
2022/12/21 01:45:19;;;;;;;;;;;;;;;8.35;100.00;101061.84;5084431;28;19916;-60
2022/12/21 01:47:49;;;;;;;;;;;;;;;8.34;100.00;101057.53;5084829;28;19923;-58
2022/12/21 01:50:34;;;;;;;;;;;;;;;8.31;100.00;101058.66;5082591;28;19916;-60
2022/12/21 01:53:02;;;;;;;;;;;;;;;8.28;100.00;101061.59;5085765;28;19920;-60
2022/12/21 01:55:28;;;;;;;;;;;;;;;8.25;100.00;101064.56;5087672;28;20001;-60
2022/12/21 01:57:53;;;;;;;;;;;;;;;8.23;100.00;101068.34;5087406;28;19916;-60
2022/12/21 02:00:18;;;;;;;;;;;;;;;8.21;100.00;101055.25;5085267;28;19926;-60
2022/12/21 02:02:52;;;;;;;;;;;;;;;8.22;100.00;101058.72;5089668;28;19920;-59
2022/12/21 02:05:22;;;;;;;;;;;;;;;8.21;100.00;101049.13;5087125;28;19917;-60
2022/12/21 02:07:47;;;;;;;;;;;;;;;8.20;100.00;101037.72;5088257;28;20007;-60
2022/12/21 02:10:13;;;;;;;;;;;;;;;8.23;100.00;101039.22;5088000;28;20015;-61
2022/12/21 02:12:40;;;;;;;;;;;;;;;8.24;100.00;101040.88;5087439;28;19931;-59
2022/12/21 02:15:05;;;;;;;;;;;;;;;8.24;100.00;101046.19;5087778;28;19920;-60
2022/12/21 02:17:49;;;;;;;;;;;;;;;8.23;100.00;101045.34;5085048;28;19920;-61
2022/12/21 02:20:17;;;;;;;;;;;;;;;8.21;100.00;101042.03;5081725;28;19924;-60
2022/12/21 02:22:48;;;;;;;;;;;;;;;8.18;100.00;101052.09;5090008;28;19978;-60
2022/12/21 02:25:29;;;;;;;;;;;;;;;8.18;100.00;101047.63;5085743;28;19916;-60
2022/12/21 02:27:57;;;;;;;;;;;;;;;8.20;100.00;101045.66;5087456;28;20442;-61
2022/12/21 02:30:23;;;;;;;;;;;;;;;8.22;100.00;101041.03;5087485;28;19946;-60
2022/12/21 02:32:57;;;;;;;;;;;;;;;8.24;100.00;101038.25;5088750;28;19952;-61
2022/12/21 02:35:33;;;;;;;;;;;;;;;8.24;100.00;101033.78;5088091;28;19961;-59
2022/12/21 02:38:17;;;;;;;;;;;;;;;8.29;100.00;101033.34;5087948;28;19923;-60
2022/12/21 02:40:50;;;;;;;;;;;;;;;8.31;100.00;101032.19;5088693;28;19964;-60
2022/12/21 02:46:24;;;;;;;;;;;;;;;8.33;100.00;101027.59;5080833;28;20852;-60
2022/12/21 02:48:57;;;;;;;;;;;;;;;8.34;100.00;101033.72;5089247;28;20026;-60
2022/12/21 02:51:26;;;;;;;;;;;;;;;8.33;100.00;101035.53;5085693;28;19912;-60
2022/12/21 02:53:51;;;;;;;;;;;;;;;8.32;100.00;101038.31;5089125;28;19916;-60
2022/12/21 02:56:18;;;;;;;;;;;;;;;8.28;100.00;101037.78;5087004;28;20031;-61
2022/12/21 02:58:43;;;;;;;;;;;;;;;8.23;100.00;101034.78;5086287;28;19938;-60
2022/12/21 03:01:11;;;;;;;;;;;;;;;8.19;100.00;101025.47;5088517;28;19945;-58
2022/12/21 03:03:55;;;;;;;;;;;;;;;8.16;100.00;101028.44;5079990;28;19923;-61
2022/12/21 03:06:42;;;;;;;;;;;;;;;8.15;100.00;101026.75;5080322;28;20276;-58
2022/12/21 03:09:16;;;;;;;;;;;;;;;8.15;100.00;101021.47;5089184;28;20395;-63
2022/12/21 03:12:03;;;;;;;;;;;;;;;8.19;100.00;101011.41;5083353;28;19961;-60
2022/12/21 03:14:46;;;;;;;;;;;;;;;8.22;100.00;101016.41;5083454;28;19962;-61
2022/12/21 03:17:17;;;;;;;;;;;;;;;8.21;100.00;101018.22;5085240;28;19916;-60
2022/12/21 03:20:05;;;;;;;;;;;;;;;8.20;100.00;101024.50;5084473;28;19927;-61
2022/12/21 03:22:39;;;;;;;;;;;;;;;8.18;100.00;101029.09;5080968;28;19916;-60
2022/12/21 03:25:09;;;;;;;;;;;;;;;8.16;100.00;101030.25;5082508;28;19924;-60
2022/12/21 03:27:39;;;;;;;;;;;;;;;8.14;100.00;101026.91;5086807;28;20000;-60
2022/12/21 03:30:11;;;;;;;;;;;;;;;8.10;100.00;101013.16;5085412;28;19920;-60
2022/12/21 03:32:47;;;;;;;;;;;;;;;8.11;100.00;101009.53;5083318;28;19959;-60
2022/12/21 03:35:26;;;;;;;;;;;;;;;8.12;100.00;101013.84;5088034;28;19993;-60
2022/12/21 03:37:53;;;;;;;;;;;;;;;8.11;100.00;101017.47;5086895;28;19916;-60
2022/12/21 03:40:21;;;;;;;;;;;;;;;8.10;100.00;101005.22;5087858;28;20011;-61
2022/12/21 03:42:49;;;;;;;;;;;;;;;8.07;100.00;101008.13;5082225;28;20015;-60
2022/12/21 03:45:22;;;;;;;;;;;;;;;8.05;100.00;101018.03;5078152;28;19929;-62
2022/12/21 03:48:06;;;;;;;;;;;;;;;8.03;100.00;101012.91;5081708;28;20495;-59
2022/12/21 03:50:34;;;;;;;;;;;;;;;8.02;100.00;101013.88;5087582;28;19947;-59
2022/12/21 03:53:10;;;;;;;;;;;;;;;7.99;100.00;101006.25;5089327;28;19912;-58
2022/12/21 03:55:37;;;;;;;;;;;;;;;7.99;100.00;101010.72;5086010;28;19913;-59
2022/12/21 03:58:03;;;;;;;;;;;;;;;7.98;100.00;101004.59;5085392;28;19951;-59
2022/12/21 04:00:33;;;;;;;;;;;;;;;8.01;100.00;100995.53;5083888;28;20750;-60
2022/12/21 04:03:10;;;;;;;;;;;;;;;8.02;100.00;100995.38;5084459;28;19934;-60
2022/12/21 04:05:40;;;;;;;;;;;;;;;8.04;100.00;100996.06;5084073;28;20265;-60
2022/12/21 04:08:05;;;;;;;;;;;;;;;8.04;100.00;101003.16;5085163;28;19928;-58
2022/12/21 04:10:30;;;;;;;;;;;;;;;8.02;100.00;101010.41;5084916;28;19916;-61
2022/12/21 04:12:55;;;;;;;;;;;;;;;7.98;100.00;101004.59;5081909;28;19927;-61
2022/12/21 04:15:23;;;;;;;;;;;;;;;7.97;100.00;101010.03;5084176;28;20324;-58
2022/12/21 04:17:49;;;;;;;;;;;;;;;7.96;100.00;101006.56;5087690;28;19912;-61
2022/12/21 04:20:16;;;;;;;;;;;;;;;7.96;100.00;101003.91;5081611;28;20485;-60
2022/12/21 04:28:12;;;;;;;;;;;;;;;7.94;100.00;101002.41;5090097;28;20417;-60
2022/12/21 04:30:38;;;;;;;;;;;;;;;7.94;100.00;101003.22;5095116;28;19916;-60
2022/12/21 04:33:04;;;;;;;;;;;;;;;7.93;100.00;100998.94;5086347;28;19920;-60
2022/12/21 04:35:29;;;;;;;;;;;;;;;7.93;100.00;100998.94;5092831;28;19916;-60
2022/12/21 04:37:55;;;;;;;;;;;;;;;7.94;100.00;100991.81;5088730;28;19923;-60
2022/12/21 04:40:20;;;;;;;;;;;;;;;7.93;100.00;101001.56;5094090;28;20576;-59
2022/12/21 04:42:45;;;;;;;;;;;;;;;7.95;100.00;100996.13;5094760;28;19916;-60
2022/12/21 04:45:10;;;;;;;;;;;;;;;7.95;100.00;101004.06;5091279;28;19916;-60
2022/12/21 04:47:36;;;;;;;;;;;;;;;7.95;100.00;100998.78;5086137;28;20387;-59
2022/12/21 04:50:01;;;;;;;;;;;;;;;7.94;100.00;100990.00;5075817;28;19917;-57
2022/12/21 04:52:27;;;;;;;;;;;;;;;7.95;100.00;100989.03;5086824;28;19920;-60
2022/12/21 04:54:52;;;;;;;;;;;;;;;7.96;100.00;100995.97;5089702;28;19916;-60
2022/12/21 04:57:17;;;;;;;;;;;;;;;7.94;100.00;101003.22;5088741;28;19912;-58
2022/12/21 04:59:44;;;;;;;;;;;;;;;7.94;100.00;101007.69;5080609;28;19920;-59
2022/12/21 05:02:09;;;;;;;;;;;;;;;7.91;100.00;101006.19;5083362;28;19920;-60
2022/12/21 05:04:34;;;;;;;;;;;;;;;7.87;100.00;100994.25;5087814;28;19912;-60
2022/12/21 05:07:00;;;;;;;;;;;;;;;7.87;100.00;100988.94;5089146;28;19930;-61
2022/12/21 05:09:25;;;;;;;;;;;;;;;7.87;100.00;101001.34;5087364;28;19928;-61
2022/12/21 05:11:51;;;;;;;;;;;;;;;7.85;100.00;100995.38;5086753;28;20021;-60
2022/12/21 05:14:16;;;;;;;;;;;;;;;7.84;100.00;100991.06;5089561;28;19987;-60
2022/12/21 05:16:41;;;;;;;;;;;;;;;7.83;100.00;100992.88;5078738;28;20011;-60
2022/12/21 05:19:07;;;;;;;;;;;;;;;7.82;100.00;100996.50;5083757;28;20264;-62
2022/12/21 05:21:32;;;;;;;;;;;;;;;7.81;100.00;100991.38;5082424;28;19963;-59
2022/12/21 05:23:57;;;;;;;;;;;;;;;7.81;100.00;100992.19;5082666;28;19919;-60
2022/12/21 05:26:22;;;;;;;;;;;;;;;7.77;100.00;100982.88;5090316;28;20292;-60
2022/12/21 05:28:48;;;;;;;;;;;;;;;7.77;100.00;100986.34;5091988;28;19998;-59
2022/12/21 05:31:14;;;;;;;;;;;;;;;7.74;100.00;100986.66;5093638;28;20291;-60
2022/12/21 05:33:39;;;;;;;;;;;;;;;7.72;100.00;100988.63;5088002;28;19920;-60
2022/12/21 05:36:05;;;;;;;;;;;;;;;7.72;100.00;100983.31;5089396;28;19916;-59
2022/12/21 05:38:30;;;;;;;;;;;;;;;7.71;100.00;100981.66;5089526;28;19916;-60
2022/12/21 05:40:56;;;;;;;;;;;;;;;7.71;100.00;100986.13;5083510;28;19924;-58
2022/12/21 05:43:21;;;;;;;;;;;;;;;7.68;100.00;100987.25;5091592;28;19912;-60
2022/12/21 05:45:46;;;;;;;;;;;;;;;7.66;100.00;100993.66;5087054;28;19955;-60
2022/12/21 05:48:11;;;;;;;;;;;;;;;7.62;100.00;100987.84;5090082;28;19916;-58
2022/12/21 05:50:40;;;;;;;;;;;;;;;7.59;100.00;100984.69;5086583;28;19929;-61
2022/12/21 05:53:06;;;;;;;;;;;;;;;7.55;100.00;100973.56;5090889;28;20299;-60
2022/12/21 05:55:31;;;;;;;;;;;;;;;7.53;100.00;100966.78;5083956;28;19917;-60
2022/12/21 05:57:56;;;;;;;;;;;;;;;7.53;100.00;100969.41;5088739;28;19920;-60
2022/12/21 06:00:22;;;;;;;;;;;;;;;7.49;100.00;100975.94;5089606;28;19955;-60
2022/12/21 06:02:47;;;;;;;;;;;;;;;7.44;100.00;100979.88;5098424;28;19922;-60
2022/12/21 06:05:12;;;;;;;;;;;;;;;7.40;100.00;100961.81;5080790;28;20400;-59
2022/12/21 06:07:37;;;;;;;;;;;;;;;7.39;100.00;100976.00;5084333;28;19916;-62
2022/12/21 06:10:03;;;;;;;;;;;;;;;7.35;100.00;100975.47;5081451;28;20634;-59
2022/12/21 06:12:29;;;;;;;;;;;;;;;7.33;100.00;100976.59;5089850;28;19912;-60
2022/12/21 06:14:54;;;;;;;;;;;;;;;7.30;100.00;100966.31;5081039;28;20384;-60
2022/12/21 06:17:19;;;;;;;;;;;;;;;7.27;100.00;100967.44;5083639;28;20296;-62
2022/12/21 06:19:44;;;;;;;;;;;;;;;7.27;100.00;100972.72;5086181;28;19936;-60
2022/12/21 06:22:09;;;;;;;;;;;;;;;7.24;100.00;100972.19;5084701;28;19970;-59
2022/12/21 06:24:34;;;;;;;;;;;;;;;7.22;100.00;100974.13;5082657;28;19919;-60
2022/12/21 06:27:00;;;;;;;;;;;;;;;7.20;100.00;100973.44;5083471;28;19955;-61
2022/12/21 06:29:25;;;;;;;;;;;;;;;7.19;100.00;100966.50;5089760;28;20006;-59
2022/12/21 06:31:50;;;;;;;;;;;;;;;7.17;100.00;100971.91;5087707;28;20379;-61
2022/12/21 06:34:15;;;;;;;;;;;;;;;7.16;100.00;100978.19;5088016;28;19930;-60
2022/12/21 06:36:40;;;;;;;;;;;;;;;7.14;100.00;100991.53;5085706;28;20372;-59
2022/12/21 06:39:06;;;;;;;;;;;;;;;7.12;100.00;100982.94;5083868;28;19959;-60
2022/12/21 06:41:31;;;;;;;;;;;;;;;7.11;100.00;100986.53;5081014;28;20326;-60
2022/12/21 06:43:56;;;;;;;;;;;;;;;7.11;100.00;100983.06;5084632;28;19959;-59
2022/12/21 06:46:21;;;;;;;;;;;;;;;7.10;100.00;100986.69;5086286;28;20397;-60
2022/12/21 06:48:47;;;;;;;;;;;;;;;7.08;100.00;100973.63;5096594;28;19920;-60
2022/12/21 06:51:13;;;;;;;;;;;;;;;7.08;100.00;100975.44;5091291;28;19920;-60
2022/12/21 06:53:39;;;;;;;;;;;;;;;7.08;100.00;100980.72;5085119;28;20325;-58
2022/12/21 06:56:06;;;;;;;;;;;;;;;7.06;100.00;100982.69;5088932;28;19912;-61
2022/12/21 06:58:32;;;;;;;;;;;;;;;7.05;100.00;100987.13;5087115;28;19916;-60
2022/12/21 07:01:04;;;;;;;;;;;;;;;7.05;100.00;100988.94;5083051;28;20311;-63
2022/12/21 07:03:29;;;;;;;;;;;;;;;7.03;100.00;100993.53;5085599;28;19923;-60
2022/12/21 07:05:54;;;;;;;;;;;;;;;7.02;100.00;100992.69;5087494;28;19923;-62
2022/12/21 07:08:19;;;;;;;;;;;;;;;7.00;100.00;100993.81;5083316;28;19923;-60
2022/12/21 07:10:44;;;;;;;;;;;;;;;6.99;100.00;100989.50;5088053;28;20302;-59
2022/12/21 07:13:10;;;;;;;;;;;;;;;6.97;100.00;100979.09;5086416;28;19959;-59
2022/12/21 07:15:36;;;;;;;;;;;;;;;6.97;100.00;100986.19;5081724;28;19920;-59
2022/12/21 07:18:01;;;;;;;;;;;;;;;6.94;100.00;100981.16;5077430;28;19939;-60
2022/12/21 07:20:26;;;;;;;;;;;;;;;6.90;100.00;100993.81;5083482;28;20307;-60
2022/12/21 07:22:51;;;;;;;;;;;;;;;6.88;100.00;100992.31;5080485;28;19913;-58
2022/12/21 07:25:16;;;;;;;;;;;;;;;6.85;100.00;100996.06;5083959;28;20058;-60
2022/12/21 07:27:41;;;;;;;;;;;;;;;6.82;100.00;101001.63;5084472;28;19919;-58
2022/12/21 07:30:07;;;;;;;;;;;;;;;6.79;100.00;101001.91;5084396;28;19963;-57
2022/12/21 07:32:32;;;;;;;;;;;;;;;6.78;100.00;101002.91;5088170;28;19917;-60
2022/12/21 07:34:58;;;;;;;;;;;;;;;6.78;100.00;101008.19;5087289;28;20018;-57
2022/12/21 07:37:23;;;;;;;;;;;;;;;6.77;100.00;101017.91;5087850;28;19931;-61
2022/12/21 07:39:48;;;;;;;;;;;;;;;6.76;100.00;101020.69;5082810;28;20391;-61
2022/12/21 07:42:13;;;;;;;;;;;;;;;6.75;100.00;101025.13;5088452;28;19912;-63
2022/12/21 07:44:39;;;;;;;;;;;;;;;6.75;100.00;101040.13;5081226;28;20628;-60
2022/12/21 07:47:04;;;;;;;;;;;;;;;6.76;100.00;101044.44;5080673;28;19923;-63
2022/12/21 07:49:29;;;;;;;;;;;;;;;6.76;100.00;101047.91;5086514;28;19924;-59
2022/12/21 07:51:55;;;;;;;;;;;;;;;6.75;100.00;101043.59;5082332;28;20664;-60
2022/12/21 07:54:20;;;;;;;;;;;;;;;6.75;100.00;101043.59;5080228;28;19999;-59
2022/12/21 07:56:45;;;;;;;;;;;;;;;6.75;100.00;101056.81;5082614;28;19916;-59
2022/12/21 07:59:10;;;;;;;;;;;;;;;6.74;100.00;101055.13;5076073;28;19976;-57
2022/12/21 08:01:35;;;;;;;;;;;;;;;6.75;100.00;101056.81;5080678;28;19920;-60
2022/12/21 08:04:01;;;;;;;;;;;;;;;6.77;100.00;101056.66;5087468;28;19950;-61
2022/12/21 08:06:26;;;;;;;;;;;;;;;6.76;100.00;101053.19;5078422;28;19923;-61
2022/12/21 08:08:51;;;;;;;;;;;;;;;6.77;100.00;101048.75;5082755;28;19923;-58
2022/12/21 08:11:18;;;;;;;;;;;;;;;6.76;100.00;101042.63;5086335;28;20371;-59
2022/12/21 08:13:44;;;;;;;;;;;;;;;6.77;100.00;101036.38;5085407;28;20383;-59
2022/12/21 08:16:11;;;;;;;;;;;;;;;6.77;100.00;101028.47;5084474;28;19924;-60
2022/12/21 08:18:37;;;;;;;;;;;;;;;6.79;100.00;101044.16;5083902;28;19912;-60
2022/12/21 08:21:02;;;;;;;;;;;;;;;6.78;100.00;101042.50;5081379;28;20450;-58
2022/12/21 08:23:27;;;;;;;;;;;;;;;6.78;100.00;101050.41;5081482;28;20061;-60
2022/12/21 08:25:52;;;;;;;;;;;;;;;6.77;100.00;101060.13;5079431;28;19916;-59
2022/12/21 08:28:18;;;;;;;;;;;;;;;6.78;100.00;101061.78;5094745;28;19920;-59
2022/12/21 08:30:43;;;;;;;;;;;;;;;6.80;100.00;101051.09;5090546;28;19916;-63
2022/12/21 08:33:09;;;;;;;;;;;;;;;6.82;100.00;101057.06;5087842;28;19959;-58
2022/12/21 08:35:34;;;;;;;;;;;;;;;6.83;100.00;101053.44;5085265;28;20407;-59
2022/12/21 08:37:59;;;;;;;;;;;;;;;6.83;100.00;101051.63;5082306;28;20299;-59
2022/12/21 08:40:25;;;;;;;;;;;;;;;6.84;100.00;101053.31;5086351;28;20451;-59
2022/12/21 08:42:50;;;;;;;;;;;;;;;6.85;100.00;101054.13;5085602;28;19923;-60
2022/12/21 08:45:16;;;;;;;;;;;;;;;6.85;100.00;101051.50;5079473;28;19973;-57
2022/12/21 08:47:41;;;;;;;;;;;;;;;6.86;100.00;101055.81;5081690;28;19958;-59
2022/12/21 08:50:07;;;;;;;;;;;;;;;6.87;100.00;101054.00;5080357;28;19931;-60
2022/12/21 08:52:32;;;;;;;;;;;;;;;6.87;100.00;101054.84;5081131;28;19958;-59
2022/12/21 08:54:57;;;;;;;;;;;;;;;6.89;100.00;101044.97;5082523;28;19920;-57
2022/12/21 08:57:23;;;;;;;;;;;;;;;6.89;100.00;101050.25;5081433;28;19985;-62
2022/12/21 08:59:48;;;;;;;;;;;;;;;6.92;100.00;101054.41;5077605;28;20059;-59
2022/12/21 09:02:13;;;;;;;;;;;;;;;6.91;100.00;101061.50;5080361;28;19924;-60
2022/12/21 09:04:38;;;;;;;;;;;;;;;6.93;100.00;101058.72;5078639;28;19926;-58
2022/12/21 09:07:03;;;;;;;;;;;;;;;6.90;100.00;101043.97;5083913;28;19916;-58
2022/12/21 09:09:29;;;;;;;;;;;;;;;6.95;100.00;101051.50;5078173;28;19961;-60
2022/12/21 09:11:54;;;;;;;;;;;;;;;6.96;100.00;101054.00;5086920;28;19950;-58
2022/12/21 09:14:19;;;;;;;;;;;;;;;6.98;100.00;101056.50;5088260;28;19912;-59
2022/12/21 09:16:45;;;;;;;;;;;;;;;6.99;100.00;101056.34;5083963;28;19916;-60
2022/12/21 09:19:10;;;;;;;;;;;;;;;7.00;100.00;101044.81;5086666;28;19981;-59
2022/12/21 09:21:35;;;;;;;;;;;;;;;7.03;100.00;101055.09;5086117;28;20341;-60
2022/12/21 09:24:00;;;;;;;;;;;;;;;7.07;100.00;101042.44;5091643;28;19912;-57
2022/12/21 09:26:25;;;;;;;;;;;;;;;7.09;100.00;101051.88;5090795;28;20508;-58
2022/12/21 09:28:50;;;;;;;;;;;;;;;7.12;100.00;101054.22;5082979;28;19912;-58
2022/12/21 09:31:18;;;;;;;;;;;;;;;7.14;100.00;101054.09;5086634;28;20614;-59
2022/12/21 09:33:43;;;;;;;;;;;;;;;7.17;100.00;101055.59;5080245;28;19944;-63
2022/12/21 09:36:09;;;;;;;;;;;;;;;7.19;100.00;101066.84;5085282;28;19951;-58
2022/12/21 09:38:35;;;;;;;;;;;;;;;7.23;100.00;101065.59;5084969;28;20383;-60
2022/12/21 09:41:06;;;;;;;;;;;;;;;7.26;100.00;101058.25;5088369;28;19928;-57
2022/12/21 09:43:37;;;;;;;;;;;;;;;7.29;100.00;101049.19;5091070;28;19916;-61
2022/12/21 09:46:02;;;;;;;;;;;;;;;7.33;100.00;101053.22;5089380;28;19971;-59
2022/12/21 09:48:30;;;;;;;;;;;;;;;7.37;100.00;101059.88;5087158;28;20383;-60
2022/12/21 09:51:14;;;;;;;;;;;;;;;7.40;100.00;101051.63;5087556;28;19921;-59
2022/12/21 09:53:44;;;;;;;;;;;;;;;7.41;100.00;101048.03;5086274;28;19952;-59
2022/12/21 09:56:14;;;;;;;;;;;;;;;7.44;100.00;101059.13;5082366;28;19913;-59
2022/12/21 09:58:44;;;;;;;;;;;;;;;7.46;100.00;101064.28;5082445;28;19917;-58
2022/12/21 10:01:28;;;;;;;;;;;;;;;7.49;100.00;101068.44;5077857;28;19920;-57
2022/12/21 10:04:11;;;;;;;;;;;;;;;7.53;100.00;101065.38;5080675;28;20007;-59
2022/12/21 10:06:51;;;;;;;;;;;;;;;7.56;100.00;101057.16;5080979;28;20379;-57
2022/12/21 10:09:39;;;;;;;;;;;;;;;7.58;100.00;101060.47;5079352;28;19920;-59
2022/12/21 10:12:15;;;;;;;;;;;;;;;7.62;100.00;101061.84;5076283;28;19916;-59
2022/12/21 10:14:40;;;;;;;;;;;;;;;7.65;100.00;101058.09;5085383;28;19957;-61
2022/12/21 10:17:16;;;;;;;;;;;;;;;7.69;100.00;101060.28;5083545;28;20366;-59
2022/12/21 10:19:54;;;;;;;;;;;;;;;7.69;100.00;101060.28;5084948;28;19912;-59
2022/12/21 10:22:24;;;;;;;;;;;;;;;7.72;100.00;101059.16;5087997;28;19916;-58
2022/12/21 10:24:52;;;;;;;;;;;;;;;7.74;100.00;101057.19;5080583;28;19912;-60
2022/12/21 10:27:21;;;;;;;;;;;;;;;7.73;100.00;101056.38;5084843;28;19916;-60
2022/12/21 10:29:49;;;;;;;;;;;;;;;7.75;100.00;101056.22;5080166;28;19916;-59
2022/12/21 10:32:15;;;;;;;;;;;;;;;7.75;100.00;101059.69;5096893;28;20433;-60
2022/12/21 10:34:47;;;;;;;;;;;;;;;7.76;100.00;101061.34;5086800;28;19920;-58
2022/12/21 10:37:22;;;;;;;;;;;;;;;7.76;100.00;101058.72;5076806;28;20403;-60
2022/12/21 10:39:53;;;;;;;;;;;;;;;7.79;100.00;101057.59;5084671;28;19912;-60
2022/12/21 10:42:19;;;;;;;;;;;;;;;7.80;100.00;101048.66;5082597;28;19923;-60
2022/12/21 10:44:46;;;;;;;;;;;;;;;7.81;100.00;101038.94;5088665;28;19947;-58
2022/12/21 10:47:16;;;;;;;;;;;;;;;7.81;100.00;101039.78;5090190;28;19912;-58
2022/12/21 10:49:41;;;;;;;;;;;;;;;7.82;100.00;101035.34;5079508;28;19946;-60
2022/12/21 10:52:25;;;;;;;;;;;;;;;7.86;100.00;101036.69;5081104;28;19931;-62
2022/12/21 10:54:50;;;;;;;;;;;;;;;7.87;100.00;101033.91;5077759;28;19923;-60
2022/12/21 10:57:16;;;;;;;;;;;;;;;7.88;100.00;101026.81;5079430;28;19916;-59
2022/12/21 10:59:41;;;;;;;;;;;;;;;7.89;100.00;101021.34;5079887;28;20038;-58
2022/12/21 11:02:07;;;;;;;;;;;;;;;7.88;100.00;101019.69;5080258;28;19923;-60
2022/12/21 11:04:32;;;;;;;;;;;;;;;7.88;100.00;101024.16;5085259;28;20007;-60
2022/12/21 11:07:23;;;;;;;;;;;;;;;7.88;100.00;101022.34;5077113;28;19915;-59
2022/12/21 11:09:59;;;;;;;;;;;;;;;7.86;100.00;101008.44;5077421;28;20007;-58
2022/12/21 11:12:25;;;;;;;;;;;;;;;7.88;100.00;101018.88;5084514;28;19912;-59
2022/12/21 11:14:52;;;;;;;;;;;;;;;7.88;100.00;101026.81;5087210;28;19934;-59
2022/12/21 11:17:35;;;;;;;;;;;;;;;7.89;100.00;101021.34;5086907;28;19944;-59
2022/12/21 11:20:05;;;;;;;;;;;;;;;7.89;100.00;101029.28;5084301;28;20310;-58
2022/12/21 11:22:31;;;;;;;;;;;;;;;7.91;100.00;101037.91;5079603;28;19924;-60
2022/12/21 11:24:58;;;;;;;;;;;;;;;7.88;100.00;101027.63;5089325;28;19912;-61
2022/12/21 11:27:25;;;;;;;;;;;;;;;7.88;100.00;101025.00;5081530;28;19981;-59
2022/12/21 11:29:53;;;;;;;;;;;;;;;7.90;100.00;101030.13;5085491;28;20352;-61
2022/12/21 11:32:19;;;;;;;;;;;;;;;7.88;100.00;101019.69;5086427;28;20019;-60
2022/12/21 11:34:47;;;;;;;;;;;;;;;7.88;100.00;101040.03;5083393;28;20015;-59
2022/12/21 11:37:26;;;;;;;;;;;;;;;7.87;100.00;101027.78;5088076;28;19943;-56
2022/12/21 11:39:54;;;;;;;;;;;;;;;7.87;100.00;101020.69;5079343;28;19925;-60
2022/12/21 11:42:23;;;;;;;;;;;;;;;7.88;100.00;101024.16;5085749;28;20383;-57
2022/12/21 11:44:50;;;;;;;;;;;;;;;7.87;100.00;101023.31;5086887;28;20037;-56
2022/12/21 11:47:22;;;;;;;;;;;;;;;7.87;100.00;101023.31;5084739;28;19946;-60
2022/12/21 11:50:03;;;;;;;;;;;;;;;7.87;100.00;101018.03;5085209;28;20333;-60
2022/12/21 11:52:31;;;;;;;;;;;;;;;7.90;100.00;101017.75;5083073;28;20409;-60
2022/12/21 11:55:02;;;;;;;;;;;;;;;7.91;100.00;101022.03;5086980;28;19946;-58
2022/12/21 11:57:44;;;;;;;;;;;;;;;7.92;100.00;101014.94;5083176;28;19913;-57
2022/12/21 12:00:10;;;;;;;;;;;;;;;7.95;100.00;101012.81;5081865;28;20404;-59
2022/12/21 12:02:49;;;;;;;;;;;;;;;7.95;100.00;101009.34;5082805;28;19927;-59
2022/12/21 12:05:34;;;;;;;;;;;;;;;7.94;100.00;101007.69;5082532;28;19919;-57
2022/12/21 12:08:18;;;;;;;;;;;;;;;7.95;100.00;100998.78;5088204;28;19923;-61
2022/12/21 12:10:52;;;;;;;;;;;;;;;7.96;100.00;101003.09;5084022;28;20439;-61
2022/12/21 12:13:35;;;;;;;;;;;;;;;7.95;100.00;101001.41;5080761;28;20557;-57
2022/12/21 12:16:19;;;;;;;;;;;;;;;7.97;100.00;100996.81;5086079;28;19916;-59
2022/12/21 12:19:03;;;;;;;;;;;;;;;7.96;100.00;100993.34;5082292;28;19912;-58
2022/12/21 12:21:31;;;;;;;;;;;;;;;7.97;100.00;100991.53;5080887;28;19978;-59
2022/12/21 12:23:56;;;;;;;;;;;;;;;7.97;100.00;100989.72;5080906;28;20756;-59
2022/12/21 12:26:27;;;;;;;;;;;;;;;7.99;100.00;100992.19;5085851;28;19912;-59
2022/12/21 12:29:11;;;;;;;;;;;;;;;8.00;100.00;100984.13;5094080;28;19920;-60
2022/12/21 12:31:44;;;;;;;;;;;;;;;8.05;100.00;100983.66;5097549;28;19923;-60
2022/12/21 12:34:09;;;;;;;;;;;;;;;8.02;100.00;100978.69;5077153;28;20383;-59
2022/12/21 12:36:50;;;;;;;;;;;;;;;8.03;100.00;100975.88;5079389;28;20303;-59
2022/12/21 12:39:29;;;;;;;;;;;;;;;8.06;100.00;100980.03;5083202;28;19920;-59
2022/12/21 12:42:13;;;;;;;;;;;;;;;8.07;100.00;100976.41;5085376;28;19920;-61
2022/12/21 12:44:52;;;;;;;;;;;;;;;8.07;100.00;100968.47;5086247;28;19916;-57
2022/12/21 12:47:28;;;;;;;;;;;;;;;8.07;100.00;100966.66;5079615;28;20531;-61
2022/12/21 12:50:01;;;;;;;;;;;;;;;8.10;100.00;100959.44;5081449;28;19912;-59